Lackland Air Force Base (Kelly Field Annex) Airport San Antonio US
ICAO: KSKF
IATA: SKF
Category: Medium
Scheduled Services: No

Elevation: 691 ft
TransAlt. 18000 ft.

Airport Communications:
SAN ANTONIO APP:118.05
ATIS:120.45
SAN ANTONIO DEP:125.7
GND:121.8
PMSV METRO:23.98
AFRC COMD POST:143.8
PTD:130.65
KELLY TWR:124.3

KSKF Zoom In..

If you have problems with the map follow the link
https://www.worldairports.se/pages/airport.php?
ICAO=KSKF

Runways:

(A) RW 15 length 11550 ft width 300 ft
ILS 110.10 / hdg 155

(B) RW 33 length 11550 ft width 300 ft
ILS 110.70 / hdg 335

Location; KSKF
Day. 23 / Time. 22.56 Zulu
* Altimeter: 29.95
* Temperature: 21° c. 69.8°f.
* Wind from: 340° Speed 07 kn.
Dewpoint: 04° c.
Visibility: 10 Statute Miles.
Clouds: Clear (automated report).

KSKF 232256Z AUTO 34007KT 10SM CLR 21/04 A2995 RMK AO2 SLPNO T02140036 $


Wind From 340°
Speed 07 kn.

 
 
jpsmedia worldairports.se 2020   terms of use